Time;durP1;ratioP1;P1;durP2;ratioP2;P2;SDS_P1;SDS_P2;PMS_P1;PMS_P2;Temp;Humidity;BMP_temperature;BMP_pressure;BME280_temperature;BME280_humidity;BME280_pressure;Samples;Min_cycle;Max_cycle;Signal;HPM_P1;HPM_P2
2022/03/21 00:00:29;;;;;;;20.77;15.90;;;8.20;64.80;;;;;;5075794;28;20639;-66
2022/03/21 00:02:57;;;;;;;21.42;14.77;;;8.10;65.40;;;;;;5075634;28;20229;-67
2022/03/21 00:05:25;;;;;;;21.20;14.63;;;8.00;65.20;;;;;;5075671;28;20238;-67
2022/03/21 00:07:53;;;;;;;17.92;14.85;;;8.00;64.60;;;;;;5075826;28;20227;-66
2022/03/21 00:10:20;;;;;;;21.42;15.50;;;8.00;64.30;;;;;;5075578;28;20202;-67
2022/03/21 00:12:49;;;;;;;21.95;14.75;;;8.10;64.90;;;;;;5075632;28;20561;-67
2022/03/21 00:15:16;;;;;;;19.30;14.68;;;8.10;65.40;;;;;;5075248;28;20207;-67
2022/03/21 00:17:43;;;;;;;19.92;14.50;;;8.10;65.40;;;;;;5075165;28;20222;-67
2022/03/21 00:20:11;;;;;;;19.63;15.30;;;8.10;65.60;;;;;;5075446;28;20294;-67
2022/03/21 00:22:39;;;;;;;20.77;15.13;;;8.00;65.40;;;;;;5075240;28;20222;-69
2022/03/21 00:25:09;;;;;;;19.75;15.73;;;7.90;65.30;;;;;;5075184;28;20692;-69
2022/03/21 00:27:37;;;;;;;19.83;14.60;;;7.90;65.80;;;;;;5074822;28;20226;-66
2022/03/21 00:30:05;;;;;;;19.05;14.43;;;7.90;66.00;;;;;;5074988;28;20203;-67
2022/03/21 00:32:32;;;;;;;20.65;15.02;;;7.80;66.10;;;;;;5075170;28;20205;-67
2022/03/21 00:34:59;;;;;;;20.30;15.07;;;7.80;66.30;;;;;;5074756;28;20293;-67
2022/03/21 00:37:26;;;;;;;19.45;13.82;;;7.70;66.30;;;;;;5074809;28;20313;-67
2022/03/21 00:39:53;;;;;;;20.08;14.80;;;7.70;66.60;;;;;;5074787;28;20207;-66
2022/03/21 00:42:22;;;;;;;19.52;14.27;;;7.70;66.70;;;;;;5074139;28;20218;-66
2022/03/21 00:44:50;;;;;;;20.98;15.25;;;7.60;66.90;;;;;;5074723;28;20211;-67
2022/03/21 00:47:17;;;;;;;17.73;13.32;;;7.60;66.80;;;;;;5074795;28;20225;-66
2022/03/21 00:49:44;;;;;;;17.25;13.90;;;7.60;66.60;;;;;;5074768;28;20553;-66
2022/03/21 00:52:11;;;;;;;18.42;14.48;;;7.60;66.80;;;;;;5074842;28;20244;-66
2022/03/21 00:54:38;;;;;;;19.83;14.50;;;7.60;66.90;;;;;;5074310;28;20225;-66
2022/03/21 00:57:05;;;;;;;18.80;13.85;;;7.50;66.60;;;;;;5074476;28;20227;-66
2022/03/21 00:59:34;;;;;;;21.48;15.18;;;7.50;67.40;;;;;;5074638;28;20230;-67
2022/03/21 01:02:00;;;;;;;17.38;14.50;;;7.50;67.70;;;;;;5074189;28;20714;-66
2022/03/21 01:04:27;;;;;;;18.85;13.45;;;7.40;67.50;;;;;;5074675;28;20242;-66
2022/03/21 01:06:54;;;;;;;16.00;13.25;;;7.50;67.50;;;;;;5074377;28;20226;-66
2022/03/21 01:09:21;;;;;;;19.33;14.68;;;7.50;67.40;;;;;;5074384;28;20202;-66
2022/03/21 01:11:48;;;;;;;17.67;13.82;;;7.50;67.40;;;;;;5074363;28;20209;-66
2022/03/21 01:14:15;;;;;;;21.98;14.57;;;7.50;67.90;;;;;;5074169;28;20234;-66
2022/03/21 01:16:43;;;;;;;20.45;14.40;;;7.40;68.00;;;;;;5074107;28;20226;-67
2022/03/21 01:19:10;;;;;;;17.13;13.05;;;7.40;68.20;;;;;;5074304;28;20207;-66
2022/03/21 01:21:37;;;;;;;17.08;13.13;;;7.40;67.90;;;;;;5074187;28;20229;-66
2022/03/21 01:24:04;;;;;;;21.17;13.50;;;7.50;68.10;;;;;;5073719;28;20230;-66
2022/03/21 01:26:31;;;;;;;17.45;13.38;;;7.50;67.30;;;;;;5074034;28;20290;-66
2022/03/21 01:28:58;;;;;;;18.98;14.15;;;7.50;66.80;;;;;;5073706;28;20220;-67
2022/03/21 01:31:25;;;;;;;18.90;14.48;;;7.50;66.90;;;;;;5074089;28;20203;-66
2022/03/21 01:33:54;;;;;;;17.00;12.98;;;7.40;67.30;;;;;;5073665;28;20295;-66
2022/03/21 01:36:22;;;;;;;19.52;14.32;;;7.30;67.90;;;;;;5073887;28;20199;-66
2022/03/21 01:38:49;;;;;;;17.17;13.63;;;7.20;68.00;;;;;;5073888;28;20210;-67
2022/03/21 01:41:16;;;;;;;18.45;14.00;;;7.20;68.70;;;;;;5073892;28;20213;-66
2022/03/21 01:43:59;;;;;;;18.60;13.65;;;7.20;69.60;;;;;;5073532;28;20234;-66
2022/03/21 01:46:27;;;;;;;20.35;14.82;;;7.10;69.10;;;;;;5073711;28;20289;-66
2022/03/21 01:48:56;;;;;;;18.33;14.00;;;7.20;69.00;;;;;;5073778;28;20210;-66
2022/03/21 01:51:24;;;;;;;19.83;13.75;;;7.20;70.10;;;;;;5073763;28;20659;-66
2022/03/21 01:56:35;;;;;;;19.05;14.40;;;7.20;69.90;;;;;;5073700;28;20271;-67
2022/03/21 01:59:02;;;;;;;18.10;14.13;;;7.20;70.10;;;;;;5073717;28;20255;-66
2022/03/21 02:01:29;;;;;;;18.55;13.73;;;7.20;70.30;;;;;;5073580;28;20213;-67
2022/03/21 02:03:57;;;;;;;21.67;14.90;;;7.20;70.20;;;;;;5073149;28;20313;-67
2022/03/21 02:06:25;;;;;;;20.10;15.35;;;7.20;70.70;;;;;;5073294;28;20238;-67
2022/03/21 02:08:52;;;;;;;21.33;15.15;;;7.20;70.70;;;;;;5073622;28;20597;-67
2022/03/21 02:11:19;;;;;;;20.25;14.55;;;7.30;71.00;;;;;;5073561;28;20229;-67
2022/03/21 02:13:47;;;;;;;18.92;14.70;;;7.30;71.10;;;;;;5073284;28;20728;-67
2022/03/21 02:16:14;;;;;;;20.08;14.65;;;7.30;69.70;;;;;;5073659;28;20222;-67
2022/03/21 02:18:44;;;;;;;22.80;15.85;;;7.20;70.00;;;;;;5073584;28;20213;-67
2022/03/21 02:21:20;;;;;;;19.05;15.52;;;7.20;70.90;;;;;;5073629;28;20204;-67
2022/03/21 02:23:53;;;;;;;20.35;14.20;;;7.10;71.70;;;;;;5073154;28;20226;-67
2022/03/21 02:26:22;;;;;;;20.00;15.25;;;7.00;72.50;;;;;;5073351;28;20213;-68
2022/03/21 02:28:50;;;;;;;23.35;16.30;;;6.90;71.70;;;;;;5073163;28;20217;-67
2022/03/21 02:31:18;;;;;;;18.83;14.77;;;6.90;72.60;;;;;;5073151;28;20203;-67
2022/03/21 02:33:46;;;;;;;19.92;15.35;;;6.90;73.20;;;;;;5073696;28;20206;-67
2022/03/21 02:36:16;;;;;;;18.90;13.73;;;6.90;73.20;;;;;;5073322;28;20203;-67
2022/03/21 02:38:46;;;;;;;19.73;14.48;;;6.90;73.00;;;;;;5073737;28;20199;-67
2022/03/21 02:41:15;;;;;;;20.20;14.85;;;6.90;73.20;;;;;;5073268;28;20203;-68
2022/03/21 02:43:54;;;;;;;21.85;15.23;;;6.90;72.90;;;;;;5072807;28;20264;-67
2022/03/21 02:46:21;;;;;;;21.67;14.43;;;7.00;72.90;;;;;;5073160;28;20572;-67
2022/03/21 02:48:48;;;;;;;19.45;14.98;;;7.10;71.60;;;;;;5073211;28;20215;-68
2022/03/21 02:51:16;;;;;;;21.38;15.45;;;7.10;71.50;;;;;;5073288;28;20205;-67
2022/03/21 02:53:46;;;;;;;23.50;15.80;;;7.20;72.30;;;;;;5072715;28;20276;-67
2022/03/21 02:56:13;;;;;;;24.25;16.42;;;7.20;73.40;;;;;;5073115;28;20202;-67
2022/03/21 02:58:39;;;;;;;19.58;14.77;;;7.30;73.60;;;;;;5073107;28;20664;-67
2022/03/21 03:01:09;;;;;;;24.13;14.98;;;7.30;72.90;;;;;;5073067;28;20209;-67
2022/03/21 03:03:36;;;;;;;21.20;16.10;;;7.30;73.00;;;;;;5072670;28;20688;-68
2022/03/21 03:06:03;;;;;;;22.35;15.77;;;7.20;72.10;;;;;;5075815;28;20203;-67
2022/03/21 03:08:30;;;;;;;18.30;14.48;;;7.10;71.40;;;;;;5076704;28;20276;-67
2022/03/21 03:10:57;;;;;;;19.98;14.85;;;7.00;72.30;;;;;;5076710;28;20576;-67
2022/03/21 03:13:24;;;;;;;22.25;14.50;;;7.00;71.90;;;;;;5076322;28;20199;-68
2022/03/21 03:15:51;;;;;;;21.20;15.50;;;7.00;71.30;;;;;;5076610;28;20207;-67
2022/03/21 03:18:19;;;;;;;19.77;14.60;;;7.00;71.00;;;;;;5076557;28;20313;-68
2022/03/21 03:20:49;;;;;;;19.58;14.75;;;6.90;71.90;;;;;;5076482;28;20242;-68
2022/03/21 03:23:18;;;;;;;20.08;14.63;;;6.90;72.50;;;;;;5075990;28;20734;-67
2022/03/21 03:25:45;;;;;;;23.45;16.25;;;6.90;72.20;;;;;;5076400;28;20309;-67
2022/03/21 03:28:12;;;;;;;21.80;15.25;;;6.90;72.20;;;;;;5076275;28;20237;-68
2022/03/21 03:30:40;;;;;;;16.95;13.52;;;6.80;72.80;;;;;;5076329;28;20301;-67
2022/03/21 03:33:07;;;;;;;17.27;14.00;;;6.70;73.60;;;;;;5075805;28;20201;-67
2022/03/21 03:35:35;;;;;;;22.60;15.25;;;6.70;73.30;;;;;;5076971;28;20202;-67
2022/03/21 03:38:03;;;;;;;19.63;15.55;;;6.60;72.50;;;;;;5075914;28;20222;-67
2022/03/21 03:40:30;;;;;;;21.80;14.77;;;6.60;73.20;;;;;;5076288;28;20215;-67
2022/03/21 03:42:56;;;;;;;21.05;14.80;;;6.60;73.30;;;;;;5076016;28;20234;-67
2022/03/21 03:45:24;;;;;;;18.50;13.77;;;6.50;73.40;;;;;;5076106;28;20206;-67
2022/03/21 03:47:51;;;;;;;19.80;14.52;;;6.50;73.20;;;;;;5075940;28;20254;-67
2022/03/21 03:50:18;;;;;;;22.35;16.05;;;6.40;73.50;;;;;;5076017;28;20602;-67
2022/03/21 03:52:47;;;;;;;20.60;15.30;;;6.30;74.00;;;;;;5075753;28;20210;-67
2022/03/21 03:55:14;;;;;;;21.48;15.55;;;6.40;73.60;;;;;;5075716;28;20202;-67
2022/03/21 03:57:41;;;;;;;21.23;14.68;;;6.40;73.60;;;;;;5076001;28;20219;-67
2022/03/21 04:00:09;;;;;;;23.02;15.13;;;6.30;73.50;;;;;;5075564;28;20209;-67
2022/03/21 04:05:18;;;;;;;19.13;14.02;;;6.30;74.20;;;;;;5075086;28;20203;-67
2022/03/21 04:07:46;;;;;;;23.50;14.68;;;6.30;74.30;;;;;;5075643;28;20227;-67
2022/03/21 04:10:13;;;;;;;20.15;14.40;;;6.20;74.20;;;;;;5075544;28;20682;-67
2022/03/21 04:12:39;;;;;;;21.90;15.05;;;6.10;73.90;;;;;;5075515;28;20298;-68
2022/03/21 04:15:07;;;;;;;20.60;13.77;;;6.10;74.80;;;;;;5075241;28;20202;-67
2022/03/21 04:17:35;;;;;;;21.52;14.73;;;6.10;75.30;;;;;;5074392;28;20231;-67
2022/03/21 04:20:03;;;;;;;22.90;15.23;;;6.10;75.00;;;;;;5075461;28;20207;-67
2022/03/21 04:22:30;;;;;;;22.42;15.65;;;6.10;75.00;;;;;;5075413;28;20255;-67
2022/03/21 04:24:58;;;;;;;21.20;15.23;;;6.10;75.50;;;;;;5075125;28;20229;-67
2022/03/21 04:27:25;;;;;;;21.77;16.42;;;5.90;75.40;;;;;;5074955;28;20230;-67
2022/03/21 04:29:52;;;;;;;17.75;13.90;;;5.70;76.50;;;;;;5075296;28;20623;-67
2022/03/21 04:32:19;;;;;;;19.52;14.63;;;5.60;77.10;;;;;;5075148;28;20293;-67
2022/03/21 04:34:46;;;;;;;19.95;15.10;;;5.70;77.80;;;;;;5074966;28;20297;-67
2022/03/21 04:37:12;;;;;;;20.85;15.57;;;5.60;79.10;;;;;;5074903;28;20229;-67
2022/03/21 04:39:40;;;;;;;22.33;15.85;;;5.60;81.80;;;;;;5075022;28;20222;-67
2022/03/21 04:42:09;;;;;;;20.98;15.95;;;5.60;81.70;;;;;;5074685;28;20290;-67
2022/03/21 04:44:35;;;;;;;19.33;14.20;;;5.60;82.10;;;;;;5074610;28;20262;-67
2022/03/21 04:47:02;;;;;;;24.75;15.45;;;5.70;82.40;;;;;;5074847;28;20380;-67
2022/03/21 04:49:29;;;;;;;23.52;14.82;;;5.80;81.70;;;;;;5074859;28;20206;-67
2022/03/21 04:51:56;;;;;;;20.88;15.45;;;6.00;80.60;;;;;;5074779;28;20209;-67
2022/03/21 04:54:23;;;;;;;20.45;15.10;;;6.10;79.50;;;;;;5074373;28;20199;-67
2022/03/21 04:56:50;;;;;;;21.10;14.77;;;6.20;79.40;;;;;;5074653;28;20226;-67
2022/03/21 04:59:18;;;;;;;20.63;15.40;;;6.20;79.80;;;;;;5075123;28;20209;-67
2022/03/21 05:01:44;;;;;;;21.70;15.63;;;6.30;80.00;;;;;;5074573;28;20199;-67
2022/03/21 05:04:11;;;;;;;21.60;15.73;;;6.30;80.80;;;;;;5074148;28;20316;-67
2022/03/21 05:06:39;;;;;;;22.73;15.35;;;6.30;80.70;;;;;;5074345;28;20229;-67
2022/03/21 05:09:06;;;;;;;21.10;14.93;;;6.40;80.10;;;;;;5074442;28;20207;-67
2022/03/21 05:11:33;;;;;;;20.77;15.50;;;6.40;80.30;;;;;;5074460;28;20653;-67
2022/03/21 05:14:00;;;;;;;23.40;16.23;;;6.30;79.60;;;;;;5074021;28;20290;-68
2022/03/21 05:16:28;;;;;;;20.67;14.93;;;6.30;78.60;;;;;;5074047;28;20234;-68
2022/03/21 05:18:55;;;;;;;19.23;14.32;;;6.20;78.80;;;;;;5074534;28;20293;-67
2022/03/21 05:21:22;;;;;;;19.17;14.15;;;6.20;78.10;;;;;;5074161;28;20206;-67
2022/03/21 05:32:09;;;;;;;20.02;14.80;;;6.10;77.90;;;;;;5074019;28;20267;-67
2022/03/21 05:37:20;;;;;;;21.05;16.00;;;5.90;79.00;;;;;;5074070;28;20222;-67
2022/03/21 05:42:31;;;;;;;18.90;14.20;;;6.10;77.90;;;;;;5074180;28;20212;-67
2022/03/21 05:44:58;;;;;;;20.17;15.00;;;6.10;76.90;;;;;;5073626;28;20654;-67
2022/03/21 05:47:26;;;;;;;20.73;14.90;;;5.90;77.10;;;;;;5073815;28;20313;-67
2022/03/21 05:49:52;;;;;;;20.98;14.88;;;5.80;78.60;;;;;;5073716;28;20202;-67
2022/03/21 05:52:18;;;;;;;21.00;14.90;;;5.60;78.50;;;;;;5074052;28;20289;-67
2022/03/21 05:54:45;;;;;;;20.50;14.98;;;5.70;78.70;;;;;;5073335;28;20849;-67
2022/03/21 05:57:12;;;;;;;19.10;13.80;;;5.60;78.40;;;;;;5073419;28;20728;-67
2022/03/21 06:02:23;;;;;;;19.35;13.98;;;5.80;77.60;;;;;;5073745;28;20270;-67
2022/03/21 06:04:51;;;;;;;18.52;14.50;;;5.90;77.40;;;;;;5073575;28;20313;-67
2022/03/21 06:07:18;;;;;;;18.98;14.07;;;5.90;77.20;;;;;;5073480;28;20253;-67
2022/03/21 06:09:45;;;;;;;19.48;14.10;;;6.00;77.00;;;;;;5073925;28;20562;-67
2022/03/21 06:12:12;;;;;;;20.90;15.15;;;6.20;76.30;;;;;;5073562;28;20207;-67
2022/03/21 06:14:39;;;;;;;19.67;14.80;;;6.30;75.70;;;;;;5073374;28;20202;-67
2022/03/21 06:17:06;;;;;;;20.02;15.25;;;6.30;75.60;;;;;;5073331;28;20317;-67
2022/03/21 06:19:33;;;;;;;20.20;14.95;;;6.40;76.80;;;;;;5073252;28;20298;-67
2022/03/21 06:22:01;;;;;;;18.92;14.90;;;6.50;75.30;;;;;;5073380;28;20664;-68
2022/03/21 06:24:28;;;;;;;19.02;14.70;;;6.60;75.10;;;;;;5073170;28;20227;-68
2022/03/21 06:26:55;;;;;;;18.67;13.48;;;6.70;75.10;;;;;;5073372;28;20226;-67
2022/03/21 06:29:22;;;;;;;18.27;14.13;;;6.70;74.30;;;;;;5073151;28;20644;-67
2022/03/21 06:31:48;;;;;;;20.00;14.63;;;6.80;74.80;;;;;;5073394;28;20252;-67
2022/03/21 06:34:15;;;;;;;18.95;14.35;;;6.80;74.20;;;;;;5073007;28;20225;-67
2022/03/21 06:36:42;;;;;;;17.85;14.57;;;6.80;74.30;;;;;;5072998;28;20233;-68
2022/03/21 06:39:10;;;;;;;22.30;14.98;;;6.90;73.80;;;;;;5073297;28;20198;-68
2022/03/21 06:41:37;;;;;;;18.30;14.65;;;6.90;73.10;;;;;;5077313;28;20309;-67
2022/03/21 06:44:06;;;;;;;19.73;14.13;;;7.00;72.60;;;;;;5076883;28;20228;-67
2022/03/21 06:46:33;;;;;;;18.35;14.13;;;7.00;72.80;;;;;;5076880;28;20202;-67
2022/03/21 06:49:00;;;;;;;19.30;13.82;;;7.00;72.30;;;;;;5076843;28;20232;-67
2022/03/21 06:51:26;;;;;;;18.42;14.25;;;7.00;72.80;;;;;;5077120;28;20202;-67
2022/03/21 06:53:53;;;;;;;19.70;14.60;;;7.10;73.00;;;;;;5076640;28;20256;-67
2022/03/21 06:56:22;;;;;;;21.90;14.02;;;7.20;72.50;;;;;;5076896;28;20293;-67
2022/03/21 06:58:48;;;;;;;16.58;12.82;;;7.20;72.60;;;;;;5077012;28;20199;-67
2022/03/21 07:01:15;;;;;;;20.67;14.70;;;7.20;71.70;;;;;;5076896;28;20297;-68
2022/03/21 07:03:42;;;;;;;18.55;14.30;;;7.30;72.00;;;;;;5076301;28;20294;-67
2022/03/21 07:06:09;;;;;;;20.05;15.23;;;7.40;71.50;;;;;;5076843;28;20575;-67
2022/03/21 07:08:35;;;;;;;20.92;15.07;;;7.60;71.70;;;;;;5076748;28;20321;-68
2022/03/21 07:11:02;;;;;;;20.13;14.57;;;7.70;72.10;;;;;;5076729;28;20205;-67
2022/03/21 07:13:31;;;;;;;21.85;15.07;;;7.90;70.80;;;;;;5076313;28;20203;-67
2022/03/21 07:15:58;;;;;;;19.17;15.40;;;8.00;70.70;;;;;;5076807;28;20297;-68
2022/03/21 07:18:25;;;;;;;21.98;14.82;;;8.00;70.80;;;;;;5076263;28;20314;-68
2022/03/21 07:20:52;;;;;;;19.52;15.18;;;8.00;70.60;;;;;;5076536;28;20199;-67
2022/03/21 07:23:19;;;;;;;19.67;16.05;;;8.20;68.90;;;;;;5076276;28;20203;-68
2022/03/21 07:25:47;;;;;;;21.75;15.63;;;8.30;69.10;;;;;;5076228;28;20665;-67
2022/03/21 07:28:14;;;;;;;19.15;14.73;;;8.30;70.70;;;;;;5076138;28;20234;-67
2022/03/21 07:30:42;;;;;;;23.30;16.02;;;8.20;69.40;;;;;;5076257;28;20234;-68
2022/03/21 07:33:09;;;;;;;20.52;15.20;;;8.20;68.60;;;;;;5076145;28;20545;-68
2022/03/21 07:35:36;;;;;;;20.98;15.05;;;8.10;69.70;;;;;;5076540;28;20198;-68
2022/03/21 07:38:03;;;;;;;20.70;15.88;;;8.30;69.10;;;;;;5076276;28;20233;-68
2022/03/21 07:40:30;;;;;;;19.85;14.68;;;8.40;69.40;;;;;;5076035;28;20211;-68
2022/03/21 07:42:57;;;;;;;20.75;14.65;;;8.40;67.70;;;;;;5076190;28;20662;-67
2022/03/21 07:48:11;;;;;;;19.63;14.80;;;8.50;71.10;;;;;;5075859;28;20292;-68
2022/03/21 07:50:38;;;;;;;20.00;15.93;;;8.70;70.50;;;;;;5075940;28;20213;-67
2022/03/21 07:53:05;;;;;;;20.88;15.77;;;8.60;70.30;;;;;;5075821;28;20576;-67
2022/03/21 07:55:32;;;;;;;20.90;16.02;;;8.80;69.70;;;;;;5075862;28;20198;-68
2022/03/21 07:58:00;;;;;;;19.70;15.80;;;8.80;71.50;;;;;;5075884;28;20222;-68
2022/03/21 08:00:27;;;;;;;21.50;15.30;;;8.80;70.70;;;;;;5075959;28;20240;-68
2022/03/21 08:02:54;;;;;;;21.90;15.13;;;8.80;71.30;;;;;;5075724;28;20222;-68
2022/03/21 08:05:22;;;;;;;20.50;15.95;;;8.90;68.20;;;;;;5075558;28;20313;-68
2022/03/21 08:07:49;;;;;;;20.95;16.67;;;9.00;68.10;;;;;;5075495;28;20672;-68
2022/03/21 08:10:18;;;;;;;25.60;16.27;;;9.10;67.70;;;;;;5075638;28;20203;-67
2022/03/21 08:12:46;;;;;;;21.20;16.05;;;9.10;66.00;;;;;;5075614;28;20245;-68
2022/03/21 08:15:14;;;;;;;19.65;15.35;;;9.20;67.80;;;;;;5075309;28;20205;-67
2022/03/21 08:17:52;;;;;;;22.05;15.70;;;9.10;67.40;;;;;;5075501;28;20313;-68
2022/03/21 08:20:21;;;;;;;20.42;15.45;;;9.20;66.70;;;;;;5075694;28;20294;-68
2022/03/21 08:22:49;;;;;;;22.27;15.80;;;9.20;66.40;;;;;;5075321;28;20202;-68
2022/03/21 08:25:17;;;;;;;20.52;15.50;;;9.30;67.20;;;;;;5075107;28;20262;-67
2022/03/21 08:27:44;;;;;;;19.10;15.15;;;9.40;66.90;;;;;;5075289;28;20242;-68
2022/03/21 08:30:13;;;;;;;18.38;14.85;;;9.50;69.60;;;;;;5075256;28;20275;-67
2022/03/21 08:32:40;;;;;;;18.90;15.07;;;9.50;65.80;;;;;;5075071;28;20221;-68
2022/03/21 08:35:07;;;;;;;19.85;15.07;;;9.70;66.90;;;;;;5075144;28;20772;-68
2022/03/21 08:37:34;;;;;;;22.17;16.45;;;9.90;64.30;;;;;;5075012;28;20225;-68
2022/03/21 08:40:02;;;;;;;20.25;16.17;;;9.90;65.40;;;;;;5075047;28;20203;-68
2022/03/21 08:42:29;;;;;;;22.15;16.05;;;10.00;62.80;;;;;;5074844;28;20664;-68
2022/03/21 08:44:56;;;;;;;21.23;16.20;;;10.20;62.30;;;;;;5074566;28;20218;-68
2022/03/21 08:47:23;;;;;;;20.67;16.70;;;10.30;60.70;;;;;;5074623;28;20227;-68
2022/03/21 08:49:50;;;;;;;19.23;15.45;;;10.50;60.70;;;;;;5074850;28;20206;-68
2022/03/21 08:52:17;;;;;;;21.33;16.38;;;10.60;63.10;;;;;;5074813;28;20298;-68
2022/03/21 08:54:44;;;;;;;23.67;17.05;;;11.00;61.10;;;;;;5074411;28;20657;-68
2022/03/21 08:57:13;;;;;;;21.65;17.55;;;11.60;60.00;;;;;;5074365;28;20223;-68
2022/03/21 08:59:40;;;;;;;24.35;17.77;;;12.30;58.50;;;;;;5074724;28;20241;-68
2022/03/21 09:02:08;;;;;;;26.50;19.05;;;12.40;57.00;;;;;;5074020;28;20695;-68
2022/03/21 09:04:36;;;;;;;22.02;17.65;;;12.20;56.60;;;;;;5074106;28;20223;-68
2022/03/21 09:07:03;;;;;;;22.85;17.48;;;12.10;57.40;;;;;;5074514;28;20227;-68
2022/03/21 09:09:30;;;;;;;23.25;18.65;;;12.10;58.10;;;;;;5074493;28;20211;-68
2022/03/21 09:11:57;;;;;;;24.85;17.50;;;11.80;56.50;;;;;;5074434;28;20209;-67
2022/03/21 09:14:25;;;;;;;21.95;17.75;;;11.80;57.70;;;;;;5074075;28;20199;-68
2022/03/21 09:16:52;;;;;;;24.33;17.20;;;12.00;57.30;;;;;;5074226;28;20223;-68
2022/03/21 09:19:20;;;;;;;25.55;18.70;;;12.20;57.00;;;;;;5074339;28;20264;-68
2022/03/21 09:21:48;;;;;;;23.95;18.48;;;12.20;57.10;;;;;;5073960;28;20207;-68
2022/03/21 09:24:15;;;;;;;22.25;17.17;;;12.30;56.60;;;;;;5073782;28;20736;-68
2022/03/21 09:26:42;;;;;;;26.98;18.45;;;12.40;56.80;;;;;;5074072;28;20219;-68
2022/03/21 09:29:09;;;;;;;22.17;19.02;;;12.50;56.60;;;;;;5073795;28;20218;-68
2022/03/21 09:31:38;;;;;;;23.10;18.10;;;12.60;56.20;;;;;;5074024;28;20294;-68
2022/03/21 09:34:05;;;;;;;23.52;17.33;;;12.60;56.20;;;;;;5073889;28;20202;-68
2022/03/21 09:36:32;;;;;;;20.10;16.88;;;12.80;56.40;;;;;;5073682;28;20724;-68
2022/03/21 09:38:59;;;;;;;27.80;17.95;;;13.10;55.90;;;;;;5074276;28;20203;-67
2022/03/21 09:41:27;;;;;;;22.00;18.70;;;13.30;55.90;;;;;;5073884;28;20267;-68
2022/03/21 09:43:59;;;;;;;22.23;18.38;;;13.40;55.20;;;;;;5073638;28;20283;-68
2022/03/21 09:46:26;;;;;;;20.77;18.05;;;13.50;55.60;;;;;;5074214;28;20227;-68
2022/03/21 09:48:56;;;;;;;23.85;19.50;;;13.70;55.00;;;;;;5073714;28;20201;-68
2022/03/21 09:51:25;;;;;;;21.25;17.30;;;13.80;54.80;;;;;;5073600;28;20254;-68
2022/03/21 09:53:52;;;;;;;23.13;18.65;;;14.30;55.30;;;;;;5073527;28;20290;-68
2022/03/21 09:56:19;;;;;;;21.25;18.42;;;14.70;53.60;;;;;;5073545;28;20658;-68
2022/03/21 09:58:47;;;;;;;22.00;17.67;;;15.00;53.40;;;;;;5073718;28;20205;-68
2022/03/21 10:01:15;;;;;;;23.10;18.38;;;15.50;52.90;;;;;;5073722;28;20206;-68
2022/03/21 10:03:42;;;;;;;25.40;19.40;;;16.20;51.60;;;;;;5073301;28;20248;-68
2022/03/21 10:06:29;;;;;;;21.35;18.80;;;17.00;50.00;;;;;;5073833;28;20219;-68
2022/03/21 10:09:14;;;;;;;22.65;19.20;;;17.40;48.60;;;;;;5073687;28;20193;-68
2022/03/21 10:11:50;;;;;;;24.38;18.67;;;17.70;47.90;;;;;;5073585;28;20199;-68
2022/03/21 10:14:24;;;;;;;23.75;19.98;;;17.80;47.10;;;;;;5072500;28;20285;-68
2022/03/21 10:16:53;;;;;;;23.50;20.13;;;17.80;46.10;;;;;;5073252;28;20244;-68
2022/03/21 10:19:20;;;;;;;27.55;20.15;;;17.80;46.20;;;;;;5073537;28;20210;-68
2022/03/21 10:22:03;;;;;;;24.13;19.73;;;17.90;46.00;;;;;;5073772;28;20198;-68
2022/03/21 10:24:35;;;;;;;26.50;20.85;;;17.80;45.90;;;;;;5073249;28;20213;-68
2022/03/21 10:27:02;;;;;;;23.27;19.90;;;17.80;45.30;;;;;;5073214;28;20229;-68
2022/03/21 10:29:31;;;;;;;23.63;19.07;;;18.10;45.20;;;;;;5073191;28;20210;-68
2022/03/21 10:31:58;;;;;;;24.93;19.83;;;18.50;44.70;;;;;;5073351;28;20451;-68
2022/03/21 10:34:30;;;;;;;25.77;19.93;;;19.10;43.80;;;;;;5073230;28;20801;-68
2022/03/21 10:37:03;;;;;;;21.33;19.13;;;19.80;43.00;;;;;;5073038;28;20465;-68
2022/03/21 10:39:31;;;;;;;22.40;19.87;;;20.50;41.70;;;;;;5073405;28;20435;-68
2022/03/21 10:42:01;;;;;;;21.70;19.40;;;21.50;40.90;;;;;;5073448;28;20451;-68
2022/03/21 10:44:28;;;;;;;22.07;19.77;;;21.50;38.90;;;;;;5073078;28;20445;-68
2022/03/21 10:46:58;;;;;;;21.70;19.27;;;21.30;38.30;;;;;;5073293;28;20567;-68
2022/03/21 10:49:31;;;;;;;23.40;19.77;;;21.20;38.80;;;;;;5073367;28;20444;-68
2022/03/21 10:51:58;;;;;;;23.07;20.13;;;21.10;38.50;;;;;;5073199;28;20535;-68
2022/03/21 10:54:45;;;;;;;22.73;19.67;;;21.00;38.30;;;;;;5072823;28;20441;-68
2022/03/21 10:57:37;;;;;;;21.37;19.13;;;20.00;39.10;;;;;;5072801;28;20458;-68
2022/03/21 11:00:17;;;;;;;21.20;18.90;;;19.90;40.00;;;;;;5058392;28;20476;-68
2022/03/21 11:02:51;;;;;;;21.80;19.40;;;19.90;39.50;;;;;;5073003;28;20436;-68
2022/03/21 11:05:19;;;;;;;23.10;20.67;;;20.30;40.10;;;;;;5072804;28;20479;-68
2022/03/21 11:07:47;;;;;;;23.63;20.03;;;20.30;39.20;;;;;;5073017;28;20540;-69
2022/03/21 11:10:15;;;;;;;24.27;20.03;;;20.30;39.30;;;;;;5073039;28;20446;-68
2022/03/21 11:12:43;;;;;;;22.60;19.80;;;19.60;39.90;;;;;;5073030;28;20451;-68
2022/03/21 11:15:11;;;;;;;21.73;19.07;;;19.50;40.60;;;;;;5072838;28;20440;-68
2022/03/21 11:17:38;;;;;;;23.13;20.40;;;19.50;41.80;;;;;;5072948;28;20833;-68
2022/03/21 11:20:06;;;;;;;21.00;18.60;;;19.60;41.30;;;;;;5072719;28;20928;-68
2022/03/21 11:22:34;;;;;;;22.80;20.43;;;19.60;41.80;;;;;;5072931;28;20446;-68
2022/03/21 11:25:03;;;;;;;23.90;20.08;;;19.20;40.70;;;;;;5072677;28;20441;-68
2022/03/21 11:27:44;;;;;;;22.37;19.13;;;18.80;41.90;;;;;;5076198;28;20585;-69
2022/03/21 11:30:18;;;;;;;22.70;20.20;;;19.10;42.70;;;;;;5076478;28;20432;-68
2022/03/21 11:32:54;;;;;;;22.70;19.90;;;19.00;41.30;;;;;;5076447;28;20452;-68
2022/03/21 11:35:27;;;;;;;24.92;19.60;;;19.00;42.20;;;;;;5076107;28;20204;-68
2022/03/21 11:37:55;;;;;;;23.70;18.70;;;19.20;42.30;;;;;;5076134;28;20694;-68
2022/03/21 11:40:28;;;;;;;21.13;18.75;;;19.30;42.00;;;;;;5076281;28;20213;-68
2022/03/21 11:43:17;;;;;;;23.33;19.90;;;19.50;40.80;;;;;;5076699;28;20564;-68
2022/03/21 11:45:44;;;;;;;21.67;18.63;;;18.90;39.90;;;;;;5075853;28;20319;-68
2022/03/21 11:48:33;;;;;;;21.88;18.58;;;18.90;40.70;;;;;;5076201;28;20463;-68
2022/03/21 11:51:23;;;;;;;20.90;17.80;;;19.00;41.60;;;;;;5076098;28;20211;-68
2022/03/21 11:53:51;;;;;;;22.20;18.40;;;19.20;41.60;;;;;;5076124;28;20453;-68
2022/03/21 11:56:19;;;;;;;24.20;19.17;;;19.30;41.20;;;;;;5075966;28;20207;-68
2022/03/21 11:58:47;;;;;;;21.07;18.77;;;19.50;40.20;;;;;;5075933;28;20450;-68
2022/03/21 12:01:27;;;;;;;20.73;18.37;;;20.10;40.00;;;;;;5075727;28;20452;-68
2022/03/21 12:03:54;;;;;;;20.07;17.93;;;19.80;39.40;;;;;;5075691;28;20812;-68
2022/03/21 12:06:29;;;;;;;21.10;18.40;;;20.10;39.80;;;;;;5075609;28;20489;-68
2022/03/21 12:08:59;;;;;;;22.13;19.67;;;20.40;39.50;;;;;;5075860;28;20445;-68
2022/03/21 12:12:05;;;;;;;20.73;18.53;;;20.90;39.30;;;;;;5075594;28;20445;-69
2022/03/21 12:14:40;;;;;;;21.53;17.93;;;20.60;37.50;;;;;;5075379;28;20842;-68
2022/03/21 12:17:37;;;;;;;21.90;18.70;;;20.10;38.70;;;;;;5075411;28;20460;-68
2022/03/21 12:20:15;;;;;;;19.90;17.30;;;20.00;38.90;;;;;;5075462;28;20424;-68
2022/03/21 12:22:50;;;;;;;21.57;17.90;;;19.80;39.40;;;;;;5075089;28;20448;-68
2022/03/21 12:25:20;;;;;;;21.67;18.70;;;19.20;39.20;;;;;;5075130;28;20444;-68
2022/03/21 12:27:50;;;;;;;22.67;17.08;;;18.40;39.70;;;;;;5075177;28;20712;-68
2022/03/21 12:30:35;;;;;;;19.15;16.65;;;17.90;41.50;;;;;;5075283;28;20304;-68
2022/03/21 12:33:06;;;;;;;19.80;15.68;;;17.40;40.20;;;;;;5075033;28;20737;-69
2022/03/21 12:36:05;;;;;;;23.35;17.40;;;17.10;42.10;;;;;;5075044;28;20248;-68
2022/03/21 12:38:37;;;;;;;18.08;15.70;;;17.20;43.20;;;;;;5073902;28;20261;-68
2022/03/21 12:41:08;;;;;;;19.38;16.13;;;17.50;42.70;;;;;;5074810;28;20203;-68
2022/03/21 12:43:48;;;;;;;21.05;18.05;;;17.60;41.90;;;;;;5074953;28;20207;-68
2022/03/21 12:46:18;;;;;;;18.40;16.25;;;17.70;42.90;;;;;;5075341;28;20584;-68
2022/03/21 12:48:48;;;;;;;19.88;16.10;;;17.80;42.60;;;;;;5074674;28;20555;-68
2022/03/21 12:51:23;;;;;;;20.85;15.20;;;17.80;42.20;;;;;;5074827;28;20290;-68
2022/03/21 12:53:50;;;;;;;17.58;15.57;;;17.80;41.50;;;;;;5074724;28;20541;-68
2022/03/21 12:56:20;;;;;;;18.27;15.25;;;17.60;40.90;;;;;;5074746;28;20377;-68
2022/03/21 12:58:49;;;;;;;18.25;15.32;;;17.50;41.30;;;;;;5074444;28;20297;-68
2022/03/21 13:01:19;;;;;;;18.42;15.57;;;17.50;41.70;;;;;;5074662;28;20260;-68
2022/03/21 13:03:47;;;;;;;19.15;15.63;;;17.70;42.30;;;;;;5074378;28;20225;-68
2022/03/21 13:11:47;;;;;;;18.15;14.32;;;17.70;41.10;;;;;;5074684;28;20247;-68